| time (UTC) | temp F | wind direction | speed MPH | gust MPH | rain 1hr in | rain 24hr in | rain mn in | humidity % | barometer mb |
| 20260901212315 | 75 | 67 | 0.0 | 1.0 | 0.00 | 1.09 | 1.09 | 89 | 1030.7 |
| 20260901211315 | 76 | 180 | 0.0 | 1.0 | 0.00 | 1.09 | 1.09 | 89 | 1030.9 |
| 20260901210316 | 76 | 81 | 0.0 | 4.0 | 0.00 | 1.09 | 1.09 | 89 | 1030.8 |
| 20260901205316 | 76 | 337 | 0.0 | 0.0 | 0.00 | 1.09 | 1.09 | 88 | 1030.7 |
| 20260901203415 | 79 | 90 | 1.0 | 3.0 | 0.00 | 1.09 | 1.09 | 85 | 1030.5 |
| 20260901202415 | 79 | 247 | 0.0 | 0.0 | 0.00 | 1.09 | 1.09 | 84 | 1030.4 |
| 20260901201416 | 79 | 247 | 0.0 | 0.0 | 0.00 | 1.09 | 1.09 | 84 | 1030.4 |
| 20260901200414 | 80 | 247 | 0.0 | 0.0 | 0.00 | 1.09 | 1.09 | 84 | 1030.2 |
| 20260901195418 | 80 | 247 | 0.0 | 0.0 | 0.00 | 1.09 | 1.09 | 84 | 1030.4 |
| 20260901194416 | 80 | 247 | 0.0 | 0.0 | 0.00 | 1.09 | 1.09 | 85 | 1030.3 |
| 20260901193416 | 80 | 247 | 0.0 | 0.0 | 0.00 | 1.09 | 1.09 | 87 | 1030.4 |
| 20260901192514 | 79 | 247 | 0.0 | 0.0 | 0.00 | 1.09 | 1.09 | 88 | 1030.3 |
| 20260901191515 | 80 | 247 | 0.0 | 0.0 | 0.00 | 1.09 | 1.09 | 90 | 1030.4 |
| 20260901190516 | 78 | 247 | 0.0 | 0.0 | 0.00 | 1.09 | 1.09 | 91 | 1030.2 |
| 20260901185516 | 78 | 247 | 0.0 | 0.0 | 0.00 | 1.09 | 1.09 | 92 | 1030.3 |
| 20260901183615 | 78 | 247 | 0.0 | 0.0 | 0.00 | 1.09 | 1.09 | 93 | 1030.5 |
| 20260901182615 | 77 | 247 | 0.0 | 0.0 | 0.00 | 1.09 | 1.09 | 94 | 1030.4 |
| 20260901181614 | 76 | 247 | 0.0 | 0.0 | 0.00 | 1.09 | 1.09 | 94 | 1030.5 |
| 20260901180614 | 76 | 247 | 0.0 | 0.0 | 0.00 | 1.09 | 1.09 | 94 | 1030.7 |
| 20260901175617 | 76 | 247 | 0.0 | 0.0 | 0.01 | 1.09 | 1.09 | 94 | 1030.6 |
| 20260901173615 | 75 | 180 | 0.0 | 0.0 | 0.01 | 1.09 | 1.09 | 94 | 1030.8 |
| 20260901172617 | 75 | 271 | 0.0 | 0.0 | 0.01 | 1.09 | 1.09 | 94 | 1030.9 |
| 20260901172518 | 75 | 270 | 0.0 | 0.0 | 0.01 | 1.09 | 1.09 | 94 | 1030.8 |
| 20260901171515 | 75 | 292 | 0.0 | 0.0 | 0.02 | 1.09 | 1.09 | 94 | 1030.6 |
| 20260901170517 | 74 | 67 | 0.0 | 0.0 | 0.03 | 1.09 | 1.09 | 94 | 1030.7 |
| 20260901165514 | 74 | 141 | 0.0 | 0.0 | 0.04 | 1.08 | 1.08 | 94 | 1031.2 |
| 20260901164613 | 74 | 67 | 0.0 | 1.0 | 0.04 | 1.08 | 1.08 | 94 | 1031.3 |
| 20260901163617 | 74 | 292 | 0.0 | 0.0 | 0.04 | 1.08 | 1.08 | 94 | 1031.7 |
| 20260901161714 | 73 | 180 | 0.0 | 0.0 | 0.03 | 1.07 | 1.07 | 94 | 1031.7 |
| 20260901160717 | 73 | 180 | 0.0 | 0.0 | 0.03 | 1.06 | 1.06 | 94 | 1032.0 |
| 20260901155713 | 73 | 72 | 0.0 | 0.0 | 0.05 | 1.04 | 1.04 | 94 | 1032.2 |
| 20260901153716 | 73 | 202 | 0.0 | 0.0 | 0.10 | 1.04 | 1.04 | 94 | 1031.8 |
| 20260901152716 | 72 | 202 | 0.0 | 0.0 | 0.10 | 1.04 | 1.04 | 94 | 1031.8 |
| 20260901150717 | 72 | 292 | 0.0 | 0.0 | 0.09 | 1.03 | 1.03 | 94 | 1031.9 |
| 20260901145816 | 72 | 292 | 0.0 | 0.0 | 0.06 | 1.00 | 0.99 | 94 | 1032.4 |
| 20260901142915 | 72 | 67 | 0.0 | 0.0 | 0.00 | 0.94 | 0.94 | 94 | 1032.3 |
| 20260901142014 | 72 | 90 | 1.0 | 2.0 | 0.00 | 0.94 | 0.94 | 94 | 1032.4 |
| 20260901141017 | 72 | 90 | 0.0 | 0.0 | 0.00 | 0.94 | 0.94 | 94 | 1032.4 |
| 20260901140017 | 72 | 90 | 0.0 | 1.0 | 0.00 | 0.94 | 0.94 | 93 | 1032.4 |
| 20260901135114 | 72 | 337 | 0.0 | 0.0 | 0.00 | 0.94 | 0.94 | 93 | 1032.3 |
| 20260901134116 | 72 | 295 | 0.0 | 0.0 | 0.00 | 0.94 | 0.94 | 94 | 1032.2 |
| 20260901133117 | 73 | 337 | 0.0 | 0.0 | 0.00 | 0.94 | 0.94 | 94 | 1032.0 |
| 20260901131215 | 72 | 337 | 0.0 | 0.0 | 0.00 | 0.94 | 0.94 | 94 | 1032.1 |
| 20260901130214 | 72 | 315 | 0.0 | 0.0 | 0.00 | 0.94 | 0.94 | 94 | 1032.1 |
| 20260901125214 | 72 | 315 | 0.0 | 0.0 | 0.00 | 0.94 | 0.94 | 94 | 1032.1 |
| 20260901124215 | 71 | 315 | 0.0 | 0.0 | 0.00 | 0.94 | 0.94 | 94 | 1032.2 |
| 20260901123214 | 71 | 315 | 0.0 | 0.0 | 0.00 | 0.94 | 0.94 | 94 | 1032.4 |
| 20260901122214 | 71 | 315 | 0.0 | 0.0 | 0.00 | 0.94 | 0.94 | 94 | 1032.5 |
| 20260901121213 | 71 | 298 | 0.0 | 0.0 | 0.00 | 0.94 | 0.94 | 94 | 1032.4 |
| 20260901120217 | 71 | 292 | 0.0 | 0.0 | 0.00 | 0.94 | 0.94 | 94 | 1032.3 |
| 20260901115314 | 71 | 292 | 0.0 | 0.0 | 0.00 | 0.94 | 0.94 | 94 | 1032.3 |
| 20260901114317 | 71 | 337 | 0.0 | 0.0 | 0.00 | 0.94 | 0.94 | 94 | 1032.4 |
| 20260901113317 | 71 | 337 | 0.0 | 0.0 | 0.00 | 0.94 | 0.94 | 94 | 1032.4 |
| 20260901112318 | 71 | 337 | 0.0 | 0.0 | 0.00 | 0.94 | 0.94 | 94 | 1032.4 |
| 20260901111315 | 70 | 337 | 0.0 | 0.0 | 0.00 | 0.94 | 0.94 | 94 | 1032.4 |
| 20260901110314 | 70 | 337 | 0.0 | 0.0 | 0.00 | 0.94 | 0.94 | 94 | 1032.4 |
| 20260901105317 | 70 | 337 | 0.0 | 0.0 | 0.00 | 0.94 | 0.94 | 94 | 1032.3 |
| 20260901104415 | 70 | 90 | 0.0 | 2.0 | 0.00 | 0.94 | 0.94 | 94 | 1032.3 |
| 20260901103417 | 70 | 90 | 0.0 | 0.0 | 0.00 | 0.94 | 0.94 | 94 | 1032.0 |
| 20260901101613 | 70 | 315 | 0.0 | 0.0 | 0.00 | 0.94 | 0.94 | 94 | 1032.3 |
| 20260901100614 | 70 | 315 | 0.0 | 0.0 | 0.00 | 0.94 | 0.94 | 94 | 1032.3 |
| 20260901095614 | 70 | 67 | 0.0 | 0.0 | 0.00 | 0.94 | 0.94 | 94 | 1032.0 |
| 20260901094615 | 70 | 67 | 0.0 | 0.0 | 0.00 | 0.94 | 0.94 | 94 | 1032.1 |
| 20260901093617 | 70 | 67 | 0.0 | 0.0 | 0.00 | 0.94 | 0.94 | 94 | 1032.4 |
| 20260901092715 | 70 | 112 | 0.0 | 0.0 | 0.00 | 0.94 | 0.94 | 94 | 1032.5 |
| 20260901091713 | 70 | 202 | 0.0 | 0.0 | 0.00 | 0.94 | 0.94 | 93 | 1032.3 |
| 20260901090714 | 70 | 90 | 0.0 | 0.0 | 0.01 | 0.94 | 0.94 | 93 | 1032.2 |
| 20260901085813 | 70 | 110 | 0.0 | 1.0 | 0.02 | 0.94 | 0.94 | 93 | 1032.3 |
| 20260901084817 | 70 | 180 | 0.0 | 0.0 | 0.03 | 0.94 | 0.94 | 93 | 1032.5 |
| 20260901083818 | 70 | 180 | 0.0 | 1.0 | 0.03 | 0.94 | 0.94 | 93 | 1032.7 |
| 20260901082913 | 70 | 337 | 0.0 | 0.0 | 0.05 | 0.94 | 0.94 | 93 | 1032.8 |
| 20260901081916 | 70 | 337 | 0.0 | 0.0 | 0.09 | 0.94 | 0.94 | 93 | 1032.7 |
| 20260901080914 | 70 | 67 | 0.0 | 0.0 | 0.11 | 0.93 | 0.93 | 93 | 1032.8 |
| 20260901075914 | 70 | 67 | 0.0 | 0.0 | 0.16 | 0.92 | 0.92 | 93 | 1032.9 |
| 20260901074915 | 70 | 180 | 0.0 | 0.0 | 0.22 | 0.91 | 0.91 | 93 | 1032.9 |
| 20260901073916 | 70 | 292 | 0.0 | 0.0 | 0.27 | 0.91 | 0.91 | 93 | 1033.0 |
| 20260901073014 | 70 | 337 | 0.0 | 0.0 | 0.30 | 0.90 | 0.89 | 93 | 1033.3 |
| 20260901072015 | 70 | 337 | 0.0 | 1.0 | 0.35 | 0.85 | 0.85 | 92 | 1033.0 |
| 20260901070113 | 70 | 337 | 0.0 | 0.0 | 0.38 | 0.76 | 0.76 | 91 | 1033.1 |
| 20260901065213 | 69 | 337 | 0.0 | 0.0 | 0.44 | 0.73 | 0.72 | 92 | 1033.1 |
| 20260901064216 | 69 | 337 | 0.0 | 0.0 | 0.46 | 0.66 | 0.66 | 91 | 1033.1 |
| 20260901063314 | 69 | 337 | 0.0 | 0.0 | 0.47 | 0.62 | 0.62 | 91 | 1033.0 |
| 20260901062413 | 69 | 292 | 0.0 | 0.0 | 0.45 | 0.54 | 0.53 | 90 | 1033.1 |
| 20260901061415 | 69 | 292 | 0.0 | 0.0 | 0.42 | 0.46 | 0.46 | 90 | 1033.3 |
| 20260901060416 | 69 | 292 | 0.0 | 0.0 | 0.40 | 0.41 | 0.40 | 89 | 1033.5 |
| 20260901055415 | 70 | 292 | 0.0 | 0.0 | 0.32 | 0.32 | 0.30 | 88 | 1033.6 |
| 20260901054514 | 70 | 292 | 0.0 | 0.0 | 0.22 | 0.22 | 0.21 | 89 | 1033.8 |
| 20260901053515 | 70 | 292 | 0.0 | 0.0 | 0.16 | 0.16 | 0.15 | 88 | 1033.9 |
| 20260901051614 | 70 | 292 | 0.0 | 0.0 | 0.05 | 0.05 | 0.04 | 87 | 1033.9 |
| 20260901050616 | 71 | 292 | 0.0 | 0.0 | 0.02 | 0.02 | 0.01 | 87 | 1033.9 |
| 20260901045714 | 71 | 292 | 0.0 | 0.0 | 0.00 | 0.00 | 0.00 | 87 | 1033.8 |
| 20260901044715 | 71 | 292 | 0.0 | 0.0 | 0.00 | 0.00 | 0.00 | 87 | 1033.7 |
| 20260901043713 | 71 | 292 | 0.0 | 0.0 | 0.00 | 0.00 | 0.00 | 87 | 1033.8 |
| 20260901042716 | 71 | 292 | 0.0 | 0.0 | 0.00 | 0.00 | 0.00 | 87 | 1033.8 |
| 20260901040714 | 71 | 292 | 0.0 | 0.0 | 0.00 | 0.00 | 0.00 | 86 | 1033.8 |
| 20260901035727 | 71 | 292 | 0.0 | 0.0 | 0.00 | 0.00 | 0.00 | 86 | 1034.0 |
| 20260901034729 | 71 | 292 | 0.0 | 0.0 | 0.00 | 0.00 | 0.00 | 86 | 1034.0 |
| 20260901033826 | 71 | 292 | 0.0 | 0.0 | 0.00 | 0.00 | 0.00 | 85 | 1034.2 |
| 20260901032826 | 71 | 292 | 0.0 | 0.0 | 0.00 | 0.00 | 0.00 | 85 | 1034.2 |
| 20260901031826 | 71 | 292 | 0.0 | 0.0 | 0.00 | 0.00 | 0.00 | 86 | 1034.2 |
| 20260901030826 | 71 | 292 | 0.0 | 0.0 | 0.00 | 0.00 | 0.00 | 85 | 1034.4 |
| 20260901025829 | 71 | 292 | 0.0 | 0.0 | 0.00 | 0.00 | 0.00 | 85 | 1034.2 |
| 20260901024926 | 71 | 292 | 0.0 | 0.0 | 0.00 | 0.00 | 0.00 | 84 | 1034.5 |
| 20260901023926 | 71 | 292 | 0.0 | 0.0 | 0.00 | 0.00 | 0.00 | 84 | 1034.5 |
| 20260901022928 | 71 | 292 | 0.0 | 0.0 | 0.00 | 0.00 | 0.00 | 84 | 1034.4 |
| 20260901021927 | 71 | 296 | 0.0 | 0.0 | 0.00 | 0.00 | 0.00 | 84 | 1034.5 |
| 20260901020926 | 71 | 112 | 0.0 | 0.0 | 0.00 | 0.00 | 0.00 | 83 | 1034.5 |
| 20260901020025 | 71 | 112 | 0.0 | 0.0 | 0.00 | 0.01 | 0.00 | 83 | 1034.5 |
| 20260901015027 | 71 | 112 | 0.0 | 0.0 | 0.00 | 0.02 | 0.00 | 83 | 1034.6 |
| 20260901013125 | 71 | 112 | 0.0 | 0.0 | 0.00 | 0.02 | 0.00 | 82 | 1034.7 |
| 20260901012127 | 71 | 112 | 0.0 | 0.0 | 0.00 | 0.02 | 0.00 | 82 | 1034.7 |
| 20260901011127 | 71 | 118 | 0.0 | 1.0 | 0.00 | 0.02 | 0.00 | 82 | 1034.5 |
| 20260901010225 | 71 | 247 | 0.0 | 0.0 | 0.00 | 0.02 | 0.00 | 81 | 1034.5 |
| 20260901005228 | 71 | 247 | 0.0 | 0.0 | 0.00 | 0.02 | 0.00 | 81 | 1034.7 |
| 20260901004228 | 71 | 247 | 0.0 | 0.0 | 0.00 | 0.02 | 0.00 | 81 | 1034.7 |
| 20260901003226 | 71 | 247 | 0.0 | 0.0 | 0.00 | 0.02 | 0.00 | 81 | 1034.5 |
| 20260901002225 | 71 | 247 | 0.0 | 0.0 | 0.00 | 0.02 | 0.00 | 81 | 1034.5 |
| 20260831234225 | 71 | 202 | 0.0 | 0.0 | 0.00 | 0.02 | 0.00 | 79 | 1034.6 |
| 20260831233325 | 72 | 202 | 0.0 | 0.0 | 0.00 | 0.02 | 0.00 | 79 | 1034.7 |
| 20260831232328 | 72 | 202 | 0.0 | 0.0 | 0.00 | 0.02 | 0.00 | 79 | 1034.9 |
| 20260831231329 | 72 | 202 | 0.0 | 0.0 | 0.00 | 0.02 | 0.00 | 78 | 1035.0 |
| 20260831230426 | 72 | 202 | 0.0 | 0.0 | 0.00 | 0.02 | 0.00 | 78 | 1035.0 |
| 20260831225427 | 73 | 202 | 0.0 | 1.0 | 0.00 | 0.02 | 0.00 | 77 | 1034.7 |
| 20260831224427 | 73 | 202 | 0.0 | 0.0 | 0.00 | 0.02 | 0.00 | 76 | 1034.9 |
| 20260831223525 | 73 | 202 | 0.0 | 0.0 | 0.00 | 0.02 | 0.00 | 76 | 1034.7 |
| 20260831222525 | 73 | 247 | 0.0 | 0.0 | 0.00 | 0.02 | 0.00 | 75 | 1034.8 |
| 20260831221527 | 73 | 337 | 0.0 | 1.0 | 0.00 | 0.02 | 0.00 | 75 | 1034.9 |
| 20260831220526 | 73 | 202 | 0.0 | 1.0 | 0.00 | 0.02 | 0.00 | 76 | 1034.9 |
| 20260831215527 | 73 | 180 | 0.0 | 1.0 | 0.00 | 0.02 | 0.00 | 76 | 1034.8 |
| 20260831214625 | 73 | 67 | 0.0 | 1.0 | 0.00 | 0.02 | 0.00 | 76 | 1034.7 |